createdAt,value
2022-08-12T00:00:54.157Z,4.18
2022-08-12T00:05:14.637Z,3.60
2022-08-12T00:09:35.152Z,4.00
2022-08-12T00:13:56.274Z,3.42
2022-08-12T00:18:16.898Z,3.65
2022-08-12T00:22:38.301Z,3.83
2022-08-12T00:27:01.654Z,4.03
2022-08-12T00:31:22.308Z,3.80
2022-08-12T00:35:42.799Z,3.50
2022-08-12T00:40:10.695Z,4.00
2022-08-12T00:44:15.571Z,4.20
2022-08-12T00:48:18.243Z,4.20
2022-08-12T00:52:20.667Z,3.83
2022-08-12T00:56:24.005Z,4.22
2022-08-12T01:00:25.724Z,3.90
2022-08-12T01:04:48.884Z,4.30
2022-08-12T01:09:11.296Z,4.53
2022-08-12T01:13:19.343Z,3.70
2022-08-12T01:17:22.881Z,3.92
2022-08-12T01:21:27.298Z,4.15
2022-08-12T01:25:33.254Z,4.10
2022-08-12T01:29:43.777Z,4.28
2022-08-12T01:34:03.867Z,4.35
2022-08-12T01:38:11.660Z,4.18
2022-08-12T01:42:17.304Z,3.85
2022-08-12T01:46:40.486Z,4.43
2022-08-12T01:51:09.554Z,4.32
2022-08-12T01:55:14.405Z,4.65
2022-08-12T01:59:45.939Z,4.50
2022-08-12T02:04:23.820Z,4.72
2022-08-12T02:09:04.789Z,4.30
2022-08-12T02:13:49.304Z,4.47
2022-08-12T02:18:04.730Z,5.53
2022-08-12T02:22:12.778Z,4.85
2022-08-12T02:26:16.239Z,4.32
2022-08-12T02:30:24.205Z,4.90
2022-08-12T02:34:27.603Z,4.60
2022-08-12T02:38:31.150Z,4.78
2022-08-12T02:42:34.712Z,5.00
2022-08-12T02:46:39.275Z,5.15
2022-08-12T02:50:46.612Z,5.07
2022-08-12T02:54:53.420Z,4.70
2022-08-12T02:58:55.641Z,4.62
2022-08-12T03:03:04.554Z,5.10
2022-08-12T03:07:10.508Z,4.65
2022-08-12T03:11:29.063Z,4.97
2022-08-12T03:15:33.057Z,5.32
2022-08-12T03:19:37.685Z,5.25
2022-08-12T03:24:00.234Z,5.25
2022-08-12T03:28:03.987Z,5.07
2022-08-12T03:32:07.531Z,5.15
2022-08-12T03:36:35.067Z,5.22
2022-08-12T03:41:07.967Z,5.12
2022-08-12T03:45:34.207Z,5.55
2022-08-12T03:50:04.521Z,4.72
2022-08-12T03:54:25.353Z,5.32
2022-08-12T04:03:02.801Z,5.43
2022-08-12T04:07:08.830Z,5.65
2022-08-12T04:11:32.131Z,5.43
2022-08-12T04:15:34.308Z,5.37
2022-08-12T04:19:37.190Z,5.35
2022-08-12T04:23:46.214Z,5.45
2022-08-12T04:27:50.893Z,5.10
2022-08-12T04:31:55.777Z,5.45
2022-08-12T04:35:57.571Z,4.82
2022-08-12T04:39:59.693Z,4.90
2022-08-12T04:44:02.655Z,5.68
2022-08-12T04:48:07.905Z,5.45
2022-08-12T04:52:09.959Z,5.22
2022-08-12T04:56:11.723Z,5.35
2022-08-12T05:00:14.780Z,4.82
2022-08-12T05:04:18.785Z,7.32
2022-08-12T05:08:22.387Z,4.90
2022-08-12T05:12:25.980Z,4.43
2022-08-12T05:16:30.812Z,4.85
2022-08-12T05:20:33.842Z,4.35
2022-08-12T05:24:36.714Z,6.80
2022-08-12T05:28:38.441Z,5.07
2022-08-12T05:32:40.323Z,5.05
2022-08-12T05:36:43.903Z,4.70
2022-08-12T05:40:45.899Z,4.90
2022-08-12T05:44:47.559Z,4.87
2022-08-12T05:48:51.201Z,5.30
2022-08-12T05:52:53.841Z,4.93
2022-08-12T05:56:55.750Z,4.37
2022-08-12T06:00:57.597Z,5.30
2022-08-12T06:05:00.221Z,4.47
2022-08-12T06:09:01.952Z,4.22
2022-08-12T06:13:05.363Z,4.20
2022-08-12T06:17:08.943Z,3.17
2022-08-12T06:21:14.262Z,2.90
2022-08-12T06:25:19.214Z,3.28
2022-08-12T06:30:07.087Z,2.90
2022-08-12T06:34:00.258Z,2.47
2022-08-12T06:38:25.052Z,2.72
2022-08-12T06:46:47.501Z,2.78
2022-08-12T06:50:49.175Z,2.10
2022-08-12T06:54:51.619Z,2.40
2022-08-12T06:58:53.336Z,2.30
2022-08-12T07:02:55.896Z,2.03
2022-08-12T07:06:57.620Z,1.80
2022-08-12T07:11:02.087Z,1.83
2022-08-12T07:15:04.248Z,2.20
2022-08-12T07:19:05.960Z,2.00
2022-08-12T07:23:08.431Z,2.30
2022-08-12T07:27:10.130Z,1.90
2022-08-12T07:31:12.384Z,2.15
2022-08-12T07:39:21.928Z,2.15
2022-08-12T07:43:24.131Z,2.67
2022-08-12T07:47:27.363Z,2.37
2022-08-12T07:51:29.727Z,1.87
2022-08-12T07:55:31.415Z,2.15
2022-08-12T07:59:35.012Z,1.90
2022-08-12T08:03:47.526Z,2.00
2022-08-12T08:07:53.201Z,2.12
2022-08-12T08:12:19.425Z,2.08
2022-08-12T08:16:21.460Z,2.05
2022-08-12T08:20:28.137Z,2.15
2022-08-12T08:24:31.306Z,2.08
2022-08-12T08:28:36.440Z,2.03
2022-08-12T08:32:39.477Z,2.50
2022-08-12T08:36:41.934Z,1.60
2022-08-12T08:41:04.797Z,1.83
2022-08-12T08:45:12.878Z,1.70
2022-08-12T08:49:15.435Z,1.48
2022-08-12T08:53:18.123Z,1.70
2022-08-12T08:57:20.443Z,1.83
2022-08-12T09:01:22.758Z,1.50
2022-08-12T09:05:25.852Z,1.50
2022-08-12T09:14:12.498Z,1.30
2022-08-12T09:18:11.897Z,1.55
2022-08-12T09:22:18.517Z,1.42
2022-08-12T09:26:22.789Z,1.73
2022-08-12T09:30:41.710Z,1.60
2022-08-12T09:34:46.255Z,1.70
2022-08-12T09:38:58.924Z,1.70
2022-08-12T09:43:21.631Z,1.50
2022-08-12T09:47:29.519Z,1.50
2022-08-12T09:51:38.328Z,1.52
2022-08-12T09:56:05.482Z,1.70
2022-08-12T10:00:14.016Z,1.30
2022-08-12T10:04:20.474Z,1.55
2022-08-12T10:08:23.767Z,1.40
2022-08-12T10:13:07.758Z,1.65
2022-08-12T10:17:08.921Z,1.70
2022-08-12T10:21:19.523Z,1.50
2022-08-12T10:26:33.893Z,1.42
2022-08-12T10:30:38.144Z,1.25
2022-08-12T10:34:26.516Z,1.75
2022-08-12T10:38:34.940Z,1.50
2022-08-12T10:43:00.988Z,1.35
2022-08-12T10:47:25.951Z,1.30
2022-08-12T10:52:02.797Z,1.65
2022-08-12T10:55:56.498Z,1.40
2022-08-12T11:00:35.452Z,1.60
2022-08-12T11:04:41.291Z,1.58
2022-08-12T11:08:47.085Z,1.45
2022-08-12T11:12:58.674Z,1.70
2022-08-12T11:17:44.010Z,1.70
2022-08-12T11:21:57.105Z,1.70
2022-08-12T11:25:56.429Z,1.75
2022-08-12T11:30:01.461Z,1.55
2022-08-12T11:34:51.505Z,1.58
2022-08-12T11:38:30.146Z,1.52
2022-08-12T11:42:32.218Z,1.60
2022-08-12T11:46:38.395Z,1.50
2022-08-12T11:50:43.686Z,1.27
2022-08-12T11:54:51.036Z,1.73
2022-08-12T12:01:59.111Z,1.60
2022-08-12T12:03:17.341Z,1.67
2022-08-12T12:07:19.140Z,1.75
2022-08-12T12:11:22.455Z,1.50
2022-08-12T12:15:25.104Z,1.48
2022-08-12T12:19:46.598Z,1.65
2022-08-12T12:23:48.361Z,1.50
2022-08-12T12:28:06.173Z,1.40
2022-08-12T12:32:11.802Z,1.50
2022-08-12T12:36:20.250Z,1.47
2022-08-12T12:40:30.120Z,1.40
2022-08-12T12:44:38.748Z,1.40
2022-08-12T12:48:55.226Z,1.42
2022-08-12T12:52:57.915Z,1.23
2022-08-12T12:57:00.743Z,1.48
2022-08-12T13:01:04.825Z,1.65
2022-08-12T13:05:42.714Z,1.65
2022-08-12T13:09:54.191Z,1.40
2022-08-12T13:14:08.795Z,1.00
2022-08-12T13:18:15.271Z,1.45
2022-08-12T13:22:20.501Z,1.33
2022-08-12T13:26:32.888Z,1.70
2022-08-12T13:30:36.315Z,1.37
2022-08-12T13:34:38.382Z,1.02
2022-08-12T13:38:42.134Z,1.20
2022-08-12T13:42:49.032Z,1.50
2022-08-12T13:46:58.748Z,1.25
2022-08-12T13:51:04.285Z,1.75
2022-08-12T13:55:06.605Z,1.40
2022-08-12T13:59:08.748Z,1.20
2022-08-12T14:03:12.334Z,1.50
2022-08-12T14:07:14.080Z,1.15
2022-08-12T14:11:15.790Z,1.37
2022-08-12T14:15:17.697Z,1.30
2022-08-12T14:19:24.889Z,1.48
2022-08-12T14:24:05.182Z,1.35
2022-08-12T14:28:04.377Z,1.20
2022-08-12T14:32:07.902Z,3.12
2022-08-12T14:36:24.013Z,1.30
2022-08-12T14:40:28.632Z,1.62
2022-08-12T14:44:57.913Z,1.25
2022-08-12T14:48:54.386Z,1.10
2022-08-12T14:57:23.805Z,1.30
2022-08-12T15:01:44.506Z,1.00
2022-08-12T15:06:06.341Z,1.20
2022-08-12T15:10:13.283Z,5.10
2022-08-12T15:14:15.284Z,1.20
2022-08-12T15:18:22.894Z,0.93
2022-08-12T15:22:38.100Z,1.33
2022-08-12T15:30:43.217Z,1.20
2022-08-12T15:34:46.861Z,1.00
2022-08-12T15:38:51.618Z,1.52
2022-08-12T15:42:54.723Z,1.55
2022-08-12T15:46:56.426Z,1.35
2022-08-12T15:50:59.313Z,1.80
2022-08-12T15:55:06.346Z,7.60
2022-08-12T15:59:15.534Z,1.45
2022-08-12T16:03:28.566Z,1.58
2022-08-12T16:07:50.813Z,1.42
2022-08-12T16:11:52.551Z,1.30
2022-08-12T16:16:02.428Z,1.35
2022-08-12T16:20:06.404Z,1.30
2022-08-12T16:24:08.379Z,0.95
2022-08-12T16:28:12.500Z,1.55
2022-08-12T16:32:19.294Z,1.20
2022-08-12T16:36:28.524Z,1.40
2022-08-12T16:40:39.305Z,1.50
2022-08-12T16:44:49.674Z,2.45
2022-08-12T16:49:08.582Z,0.98
2022-08-12T16:53:17.643Z,1.35
2022-08-12T16:57:20.154Z,1.40
2022-08-12T17:01:37.460Z,1.27
2022-08-12T17:05:40.529Z,1.10
2022-08-12T17:09:51.599Z,1.58
2022-08-12T17:13:55.091Z,1.58
2022-08-12T17:18:15.458Z,1.50
2022-08-12T17:22:22.024Z,1.17
2022-08-12T17:26:30.842Z,12.45
2022-08-12T17:30:59.511Z,1.30
2022-08-12T17:35:20.908Z,1.20
2022-08-12T17:39:23.539Z,1.60
2022-08-12T17:43:54.855Z,1.40
2022-08-12T17:48:04.828Z,1.35
2022-08-12T17:52:08.470Z,1.40
2022-08-12T17:56:12.281Z,1.27
2022-08-12T18:00:18.086Z,1.70
2022-08-12T18:04:22.730Z,1.85
2022-08-12T18:12:47.974Z,1.05
2022-08-12T18:16:54.503Z,1.00
2022-08-12T18:20:57.496Z,1.10
2022-08-12T18:25:03.941Z,1.10
2022-08-12T18:29:07.126Z,1.17
2022-08-12T18:33:12.099Z,1.10
2022-08-12T18:37:41.993Z,2.12
2022-08-12T18:41:39.463Z,1.40
2022-08-12T18:45:56.759Z,1.20
2022-08-12T18:49:59.049Z,1.27
2022-08-12T18:54:07.625Z,1.20
2022-08-12T18:58:13.829Z,1.50
2022-08-12T19:02:24.782Z,1.60
2022-08-12T19:06:41.468Z,1.73
2022-08-12T19:10:50.534Z,1.20
2022-08-12T19:15:03.919Z,1.10
2022-08-12T19:19:09.208Z,1.00
2022-08-12T19:23:16.491Z,1.20
2022-08-12T19:27:23.605Z,1.50
2022-08-12T19:31:57.242Z,1.40
2022-08-12T19:36:07.776Z,1.48
2022-08-12T19:40:32.655Z,1.62
2022-08-12T19:44:37.683Z,1.70
2022-08-12T19:48:40.941Z,1.48
2022-08-12T19:52:45.059Z,1.52
2022-08-12T19:56:50.503Z,1.70
2022-08-12T20:00:54.391Z,1.65
2022-08-12T20:06:03.575Z,1.80
2022-08-12T20:09:19.704Z,1.60
2022-08-12T20:13:26.979Z,2.40
2022-08-12T20:21:54.878Z,1.60
2022-08-12T20:26:01.879Z,1.50
2022-08-12T20:30:07.548Z,1.62
2022-08-12T20:34:09.362Z,1.67
2022-08-12T20:38:26.376Z,1.58
2022-08-12T20:42:31.934Z,1.40
2022-08-12T20:46:33.897Z,1.42
2022-08-12T20:50:36.487Z,1.90
2022-08-12T20:54:48.070Z,1.33
2022-08-12T20:58:57.734Z,1.60
2022-08-12T21:03:19.516Z,1.48
2022-08-12T21:07:23.518Z,2.30
2022-08-12T21:11:25.501Z,1.45
2022-08-12T21:15:30.657Z,1.45
2022-08-12T21:19:52.811Z,1.30
2022-08-12T21:23:56.525Z,1.60
2022-08-12T21:28:07.376Z,1.70
2022-08-12T21:32:39.595Z,1.85
2022-08-12T21:36:35.199Z,1.65
2022-08-12T21:40:51.856Z,1.50
2022-08-12T21:45:47.485Z,1.77
2022-08-12T21:49:55.374Z,1.77
2022-08-12T21:54:06.892Z,1.70
2022-08-12T21:58:16.611Z,1.20
2022-08-12T22:02:37.015Z,1.42
2022-08-12T22:06:43.941Z,1.50
2022-08-12T22:10:46.408Z,1.83
2022-08-12T22:14:48.623Z,1.27
2022-08-12T22:18:52.223Z,1.27
2022-08-12T22:22:56.775Z,1.50
2022-08-12T22:27:14.366Z,1.10
2022-08-12T22:31:27.052Z,1.37
2022-08-12T22:35:55.783Z,1.00
2022-08-12T22:39:53.542Z,1.05
2022-08-12T22:44:15.055Z,0.90
2022-08-12T22:48:21.957Z,0.90
2022-08-12T22:52:28.670Z,0.85
2022-08-12T22:56:35.266Z,0.80
2022-08-12T23:00:38.532Z,1.00
2022-08-12T23:04:40.323Z,0.75
2022-08-12T23:08:45.159Z,0.70
2022-08-12T23:13:05.444Z,0.70
2022-08-12T23:17:07.529Z,0.70
2022-08-12T23:21:24.569Z,0.70
2022-08-12T23:25:32.728Z,0.70
2022-08-12T23:30:18.004Z,0.85
2022-08-12T23:34:14.594Z,0.57
2022-08-12T23:38:31.153Z,1.10
2022-08-12T23:42:33.626Z,0.70
2022-08-12T23:46:36.740Z,0.93
2022-08-12T23:50:41.160Z,0.70
2022-08-12T23:54:58.309Z,0.62
2022-08-12T23:59:10.114Z,0.70
